Thursday, July 28, 2016, 8:15 AM EDT

KUNV, State College, University Park Airport

Location: State College, PA, United States Lat: 40.85
Local Time: 8:15 AM EDT (12:15 GMT) Lon: -77.85
Time Zone: US/Eastern Elev: 1240 ft

Show me the last for .
Show Decoded

2016-07-28 07:53 METAR KUNV 281153Z 00000KT 10SM BKN070 19/16 A2998 =
2016-07-28 06:53 METAR KUNV 281053Z 00000KT 10SM SCT075 17/15 A2997 =
2016-07-28 05:53 METAR KUNV 280953Z 00000KT 10SM SCT090 17/15 A2995 =
2016-07-28 05:35 METAR KUNV 280935Z AUTO 00000KT 10SM SCT100 17/15 A2995 RMK AO2 T01740150 =
2016-07-28 05:15 METAR KUNV 280915Z AUTO 00000KT 10SM SCT100 17/15 A2995 RMK AO2 T01680150 =
2016-07-28 04:55 METAR KUNV 280855Z AUTO 00000KT 10SM CLR 16/15 A2996 RMK AO2 T01640147 =
2016-07-28 04:35 METAR KUNV 280835Z AUTO 00000KT 10SM CLR 17/15 A2996 RMK AO2 T01730149 =
2016-07-28 04:15 METAR KUNV 280815Z AUTO 00000KT 10SM CLR 19/15 A2996 RMK AO2 T01860152 =
2016-07-28 03:55 METAR KUNV 280755Z AUTO 00000KT 10SM CLR 18/15 A2996 RMK AO2 T01820150 =
2016-07-28 03:35 METAR KUNV 280735Z AUTO 00000KT 10SM CLR 17/15 A2996 RMK AO2 T01740150 =
2016-07-28 03:15 METAR KUNV 280715Z AUTO 00000KT 10SM CLR 18/15 A2997 RMK AO2 T01760151 =
2016-07-28 02:55 METAR KUNV 280655Z AUTO 00000KT 10SM CLR 19/16 A2997 RMK AO2 T01920156 =
2016-07-28 02:35 METAR KUNV 280635Z AUTO 00000KT 10SM CLR 19/16 A2997 RMK AO2 T01870155 =
2016-07-28 02:15 METAR KUNV 280615Z AUTO 00000KT 10SM CLR 18/15 A2997 RMK AO2 T01800154 =
2016-07-28 01:55 METAR KUNV 280555Z AUTO 00000KT 10SM CLR 20/16 A2997 RMK AO2 T02000155 10287
                 20200 =
2016-07-28 01:35 METAR KUNV 280535Z AUTO 00000KT 10SM CLR 21/15 A2997 RMK AO2 LTG DSNT SW
                 T02080153 =
2016-07-28 01:15 METAR KUNV 280515Z AUTO 00000KT 10SM CLR 21/15 A2997 RMK AO2 T02050154 =
2016-07-28 00:55 METAR KUNV 280455Z AUTO 00000KT 10SM CLR 21/16 A2997 RMK AO2 T02050158 =
2016-07-28 00:35 METAR KUNV 280435Z AUTO 00000KT 10SM CLR 21/16 A2997 RMK AO2 T02130155 =
2016-07-28 00:15 METAR KUNV 280415Z AUTO 00000KT 10SM CLR 21/16 A2997 RMK AO2 T02120160 =
2016-07-27 23:55 METAR KUNV 280355Z AUTO 00000KT 10SM CLR 22/16 A2996 RMK AO2 T02160157 403140170
                 =
2016-07-27 23:35 METAR KUNV 280335Z AUTO 00000KT 10SM CLR 22/16 A2996 RMK AO2 T02170155 =
2016-07-27 23:15 METAR KUNV 280315Z AUTO 00000KT 10SM CLR 23/15 A2997 RMK AO2 T02290151 =
2016-07-27 22:55 METAR KUNV 280255Z AUTO 00000KT 10SM CLR 23/15 A2997 RMK AO2 T02300148 =
2016-07-27 22:35 METAR KUNV 280235Z AUTO 00000KT 10SM CLR 23/16 A2996 RMK AO2 T02260155 =
2016-07-27 22:15 METAR KUNV 280215Z AUTO 00000KT 10SM CLR 25/16 A2996 RMK AO2 T02450155 =
2016-07-27 21:55 METAR KUNV 280155Z AUTO 00000KT 10SM CLR 24/16 A2996 RMK AO2 T02380160 =
2016-07-27 20:53 METAR KUNV 280053Z 00000KT 10SM SKC 27/14 A2996 =
2016-07-27 19:53 METAR KUNV 272353Z 00000KT 10SM FEW065 28/16 A2995 =
2016-07-27 18:53 METAR KUNV 272253Z 00000KT 10SM FEW065 30/14 A2995 =
2016-07-27 17:53 METAR KUNV 272153Z 00000KT 10SM FEW065 30/14 A2995 =
2016-07-27 16:53 METAR KUNV 272053Z 30004KT 10SM FEW065 30/13 A2996 =
2016-07-27 15:53 METAR KUNV 271953Z VRB03KT 10SM FEW065 30/14 A2998 =
2016-07-27 14:53 METAR KUNV 271853Z VRB03KT 10SM FEW065 30/14 A2998 =
2016-07-27 13:53 METAR KUNV 271753Z 30004KT 10SM FEW065 29/13 A3001 =
2016-07-27 12:53 METAR KUNV 271653Z 20003KT 10SM FEW045 28/17 A3002 =
2016-07-27 11:53 METAR KUNV 271553Z VRB03KT 10SM FEW045 27/17 A3003 =
2016-07-27 10:53 METAR KUNV 271453Z 00000KT 10SM FEW030 26/17 A3004 =
2016-07-27 09:53 METAR KUNV 271353Z 00000KT 10SM SKC 24/17 A3005 =
2016-07-27 08:53 METAR KUNV 271253Z 00000KT 10SM SKC 22/17 A3005 =

Support USWX by starting your Amazon purchase here.